Aviation Digital Data Service (ADDS)

Output produced by METARs form (1716 UTC 03 July 2015)
found at http://aviationweather.gov/adds/metars/
 
KROA 031345Z 0314/0412 11005KT P6SM -SHRA FEW009 OVC027 
     FM031410 11003KT 2SM SHRA BR OVC006 
     FM031500 10003KT 4SM -SHRA BR SCT007 OVC012 
     TEMPO 0315/0316 OVC007 
     FM031800 14006KT 6SM -SHRA HZ BKN025 OVC045 
     FM040200 23005KT P6SM VCSH BKN025 OVC050